sensor_id;sensor_type;location;lat;lon;timestamp;P1;durP1;ratioP1;P2;durP2;ratioP2
4391;SDS011;2210;51.938;8.488;2023-04-24T07:23:23;6.63;;;5.57;;
4391;SDS011;2210;51.938;8.488;2023-04-24T07:27:27;6.03;;;5.53;;
4391;SDS011;2210;51.938;8.488;2023-04-24T07:31:30;7.03;;;5.30;;
4391;SDS011;2210;51.938;8.488;2023-04-24T07:35:31;5.27;;;4.80;;
4391;SDS011;2210;51.938;8.488;2023-04-24T07:39:34;5.07;;;4.57;;
4391;SDS011;2210;51.938;8.488;2023-04-24T07:43:34;8.53;;;4.87;;
4391;SDS011;2210;51.938;8.488;2023-04-24T07:47:35;4.53;;;4.13;;
4391;SDS011;2210;51.938;8.488;2023-04-24T07:51:37;5.83;;;4.57;;
4391;SDS011;2210;51.938;8.488;2023-04-24T07:55:38;7.73;;;3.87;;
4391;SDS011;2210;51.938;8.488;2023-04-24T07:59:38;6.00;;;4.00;;
4391;SDS011;2210;51.938;8.488;2023-04-24T08:03:38;6.00;;;3.58;;
4391;SDS011;2210;51.938;8.488;2023-04-24T08:07:39;4.00;;;3.60;;
4391;SDS011;2210;51.938;8.488;2023-04-24T08:11:43;4.03;;;3.63;;
4391;SDS011;2210;51.938;8.488;2023-04-24T08:15:46;5.73;;;3.10;;
4391;SDS011;2210;51.938;8.488;2023-04-24T08:19:46;3.00;;;2.80;;
4391;SDS011;2210;51.938;8.488;2023-04-24T08:23:51;5.27;;;2.80;;
4391;SDS011;2210;51.938;8.488;2023-04-24T08:31:54;2.67;;;2.40;;
4391;SDS011;2210;51.938;8.488;2023-04-24T08:35:54;2.37;;;2.17;;
4391;SDS011;2210;51.938;8.488;2023-04-24T08:40:12;4.75;;;2.13;;
4391;SDS011;2210;51.938;8.488;2023-04-24T08:44:14;2.30;;;2.07;;
4391;SDS011;2210;51.938;8.488;2023-04-24T08:48:16;2.10;;;1.87;;
4391;SDS011;2210;51.938;8.488;2023-04-24T08:52:17;2.10;;;2.00;;
4391;SDS011;2210;51.938;8.488;2023-04-24T08:56:18;1.60;;;1.50;;
4391;SDS011;2210;51.938;8.488;2023-04-24T09:00:22;2.30;;;2.10;;
4391;SDS011;2210;51.938;8.488;2023-04-24T09:04:25;3.00;;;1.80;;
4391;SDS011;2210;51.938;8.488;2023-04-24T09:08:31;2.30;;;2.10;;
4391;SDS011;2210;51.938;8.488;2023-04-24T09:12:34;1.80;;;1.70;;
4391;SDS011;2210;51.938;8.488;2023-04-24T09:16:34;1.77;;;1.60;;
4391;SDS011;2210;51.938;8.488;2023-04-24T09:25:14;1.90;;;1.80;;
4391;SDS011;2210;51.938;8.488;2023-04-24T09:29:15;2.40;;;1.40;;
4391;SDS011;2210;51.938;8.488;2023-04-24T09:33:16;1.60;;;1.50;;
4391;SDS011;2210;51.938;8.488;2023-04-24T09:37:36;2.63;;;1.60;;
4391;SDS011;2210;51.938;8.488;2023-04-24T09:45:51;1.60;;;1.50;;
4391;SDS011;2210;51.938;8.488;2023-04-24T09:49:57;1.40;;;1.30;;
4391;SDS011;2210;51.938;8.488;2023-04-24T09:59:10;1.47;;;0.90;;
4391;SDS011;2210;51.938;8.488;2023-04-24T10:03:11;1.10;;;1.10;;
4391;SDS011;2210;51.938;8.488;2023-04-24T10:07:11;0.80;;;0.80;;
4391;SDS011;2210;51.938;8.488;2023-04-24T10:11:14;0.80;;;0.80;;
4391;SDS011;2210;51.938;8.488;2023-04-24T10:15:21;0.70;;;0.70;;
4391;SDS011;2210;51.938;8.488;2023-04-24T10:19:26;0.70;;;0.70;;
4391;SDS011;2210;51.938;8.488;2023-04-24T10:23:26;0.70;;;0.70;;
4391;SDS011;2210;51.938;8.488;2023-04-24T10:27:33;0.93;;;0.93;;
4391;SDS011;2210;51.938;8.488;2023-04-24T10:31:46;3.53;;;1.00;;
4391;SDS011;2210;51.938;8.488;2023-04-24T10:35:47;1.07;;;1.03;;
4391;SDS011;2210;51.938;8.488;2023-04-24T10:39:50;0.80;;;0.80;;
4391;SDS011;2210;51.938;8.488;2023-04-24T10:44:13;1.17;;;1.17;;
4391;SDS011;2210;51.938;8.488;2023-04-24T10:48:14;2.80;;;1.40;;
4391;SDS011;2210;51.938;8.488;2023-04-24T10:52:15;1.27;;;1.20;;
4391;SDS011;2210;51.938;8.488;2023-04-24T10:56:22;0.90;;;0.90;;
4391;SDS011;2210;51.938;8.488;2023-04-24T11:00:24;1.00;;;0.90;;
4391;SDS011;2210;51.938;8.488;2023-04-24T11:04:33;0.80;;;0.80;;
4391;SDS011;2210;51.938;8.488;2023-04-24T11:08:44;1.10;;;1.00;;
4391;SDS011;2210;51.938;8.488;2023-04-24T11:12:51;1.23;;;0.80;;
4391;SDS011;2210;51.938;8.488;2023-04-24T11:16:54;0.93;;;0.93;;
4391;SDS011;2210;51.938;8.488;2023-04-24T11:20:55;0.97;;;0.97;;
4391;SDS011;2210;51.938;8.488;2023-04-24T11:24:59;1.07;;;1.03;;
4391;SDS011;2210;51.938;8.488;2023-04-24T11:29:11;1.30;;;1.23;;
4391;SDS011;2210;51.938;8.488;2023-04-24T11:33:14;2.70;;;2.50;;
4391;SDS011;2210;51.938;8.488;2023-04-24T11:37:21;1.43;;;1.33;;
4391;SDS011;2210;51.938;8.488;2023-04-24T11:41:28;2.10;;;1.63;;
4391;SDS011;2210;51.938;8.488;2023-04-24T11:45:47;2.80;;;1.63;;
4391;SDS011;2210;51.938;8.488;2023-04-24T11:49:50;1.73;;;1.63;;
4391;SDS011;2210;51.938;8.488;2023-04-24T11:53:50;2.13;;;2.03;;
4391;SDS011;2210;51.938;8.488;2023-04-24T11:58:00;2.00;;;1.73;;
4391;SDS011;2210;51.938;8.488;2023-04-24T12:02:08;3.07;;;2.07;;
4391;SDS011;2210;51.938;8.488;2023-04-24T12:06:14;3.13;;;2.07;;
4391;SDS011;2210;51.938;8.488;2023-04-24T12:10:19;1.70;;;1.60;;
4391;SDS011;2210;51.938;8.488;2023-04-24T12:14:20;2.73;;;1.43;;
4391;SDS011;2210;51.938;8.488;2023-04-24T12:18:24;2.00;;;1.50;;
4391;SDS011;2210;51.938;8.488;2023-04-24T12:22:24;4.20;;;1.97;;
4391;SDS011;2210;51.938;8.488;2023-04-24T12:26:24;2.20;;;1.70;;
4391;SDS011;2210;51.938;8.488;2023-04-24T12:30:29;1.93;;;1.60;;
4391;SDS011;2210;51.938;8.488;2023-04-24T12:34:40;2.80;;;1.43;;
4391;SDS011;2210;51.938;8.488;2023-04-24T12:38:43;2.43;;;1.80;;
4391;SDS011;2210;51.938;8.488;2023-04-24T12:42:50;1.97;;;1.87;;
4391;SDS011;2210;51.938;8.488;2023-04-24T12:46:51;3.80;;;2.30;;
4391;SDS011;2210;51.938;8.488;2023-04-24T12:50:58;2.42;;;2.22;;
4391;SDS011;2210;51.938;8.488;2023-04-24T12:55:01;3.97;;;2.67;;
4391;SDS011;2210;51.938;8.488;2023-04-24T12:59:04;2.87;;;2.67;;
4391;SDS011;2210;51.938;8.488;2023-04-24T13:03:05;2.80;;;2.27;;
4391;SDS011;2210;51.938;8.488;2023-04-24T13:07:05;3.20;;;2.70;;
4391;SDS011;2210;51.938;8.488;2023-04-24T13:11:09;2.87;;;2.60;;
4391;SDS011;2210;51.938;8.488;2023-04-24T13:15:12;2.90;;;2.70;;
4391;SDS011;2210;51.938;8.488;2023-04-24T13:19:13;3.40;;;2.60;;
4391;SDS011;2210;51.938;8.488;2023-04-24T13:23:13;4.40;;;2.83;;
4391;SDS011;2210;51.938;8.488;2023-04-24T13:27:16;5.25;;;2.70;;
4391;SDS011;2210;51.938;8.488;2023-04-24T13:31:17;4.00;;;3.10;;
4391;SDS011;2210;51.938;8.488;2023-04-24T13:35:17;6.67;;;3.50;;
4391;SDS011;2210;51.938;8.488;2023-04-24T13:39:17;6.90;;;3.23;;
4391;SDS011;2210;51.938;8.488;2023-04-24T13:43:24;3.50;;;3.10;;
4391;SDS011;2210;51.938;8.488;2023-04-24T13:47:24;3.90;;;3.30;;
4391;SDS011;2210;51.938;8.488;2023-04-24T13:51:27;6.47;;;3.65;;
4391;SDS011;2210;51.938;8.488;2023-04-24T13:55:37;6.07;;;4.27;;
4391;SDS011;2210;51.938;8.488;2023-04-24T13:59:39;7.30;;;3.93;;
4391;SDS011;2210;51.938;8.488;2023-04-24T14:03:46;4.97;;;3.60;;
4391;SDS011;2210;51.938;8.488;2023-04-24T14:07:46;9.33;;;4.07;;
4391;SDS011;2210;51.938;8.488;2023-04-24T14:11:49;6.88;;;4.40;;
4391;SDS011;2210;51.938;8.488;2023-04-24T14:15:51;4.83;;;3.67;;
4391;SDS011;2210;51.938;8.488;2023-04-24T14:19:58;8.60;;;4.30;;
4391;SDS011;2210;51.938;8.488;2023-04-24T14:24:00;3.80;;;3.37;;
4391;SDS011;2210;51.938;8.488;2023-04-24T14:28:00;5.90;;;3.37;;
4391;SDS011;2210;51.938;8.488;2023-04-24T14:32:00;5.47;;;3.87;;
4391;SDS011;2210;51.938;8.488;2023-04-24T14:36:01;4.20;;;3.50;;
4391;SDS011;2210;51.938;8.488;2023-04-24T14:40:12;6.20;;;4.63;;
4391;SDS011;2210;51.938;8.488;2023-04-24T14:44:15;8.03;;;4.57;;
4391;SDS011;2210;51.938;8.488;2023-04-24T14:48:15;8.87;;;4.57;;
4391;SDS011;2210;51.938;8.488;2023-04-24T14:52:16;7.23;;;4.10;;
4391;SDS011;2210;51.938;8.488;2023-04-24T14:56:22;4.30;;;3.43;;
4391;SDS011;2210;51.938;8.488;2023-04-24T15:00:23;5.50;;;4.10;;
4391;SDS011;2210;51.938;8.488;2023-04-24T15:04:27;5.73;;;3.17;;
4391;SDS011;2210;51.938;8.488;2023-04-24T15:08:37;3.93;;;2.60;;
4391;SDS011;2210;51.938;8.488;2023-04-24T15:12:40;5.70;;;3.57;;
4391;SDS011;2210;51.938;8.488;2023-04-24T15:16:40;5.33;;;4.33;;
4391;SDS011;2210;51.938;8.488;2023-04-24T15:20:40;4.37;;;3.20;;
4391;SDS011;2210;51.938;8.488;2023-04-24T15:29:11;2.27;;;1.60;;
4391;SDS011;2210;51.938;8.488;2023-04-24T15:33:11;1.63;;;1.53;;
4391;SDS011;2210;51.938;8.488;2023-04-24T15:37:11;2.30;;;1.27;;
4391;SDS011;2210;51.938;8.488;2023-04-24T15:41:11;1.92;;;1.80;;
4391;SDS011;2210;51.938;8.488;2023-04-24T15:45:12;2.87;;;1.43;;
4391;SDS011;2210;51.938;8.488;2023-04-24T15:49:15;1.60;;;1.50;;
4391;SDS011;2210;51.938;8.488;2023-04-24T15:53:19;2.27;;;1.60;;
4391;SDS011;2210;51.938;8.488;2023-04-24T15:57:24;3.20;;;1.70;;
4391;SDS011;2210;51.938;8.488;2023-04-24T16:01:28;7.63;;;2.00;;
4391;SDS011;2210;51.938;8.488;2023-04-24T16:05:30;2.93;;;2.27;;
4391;SDS011;2210;51.938;8.488;2023-04-24T16:09:36;4.13;;;2.30;;
4391;SDS011;2210;51.938;8.488;2023-04-24T16:13:43;3.20;;;1.80;;
4391;SDS011;2210;51.938;8.488;2023-04-24T16:17:47;1.90;;;1.40;;
4391;SDS011;2210;51.938;8.488;2023-04-24T16:21:48;2.33;;;1.90;;
4391;SDS011;2210;51.938;8.488;2023-04-24T16:25:49;1.60;;;1.47;;
4391;SDS011;2210;51.938;8.488;2023-04-24T16:29:49;3.13;;;1.50;;
4391;SDS011;2210;51.938;8.488;2023-04-24T16:33:50;4.57;;;2.07;;
4391;SDS011;2210;51.938;8.488;2023-04-24T16:37:53;2.90;;;1.90;;
4391;SDS011;2210;51.938;8.488;2023-04-24T16:41:53;2.50;;;1.60;;
4391;SDS011;2210;51.938;8.488;2023-04-24T16:45:57;3.20;;;2.00;;
4391;SDS011;2210;51.938;8.488;2023-04-24T16:50:01;3.70;;;1.90;;
4391;SDS011;2210;51.938;8.488;2023-04-24T16:54:05;4.40;;;1.87;;
4391;SDS011;2210;51.938;8.488;2023-04-24T16:58:05;3.77;;;1.90;;
4391;SDS011;2210;51.938;8.488;2023-04-24T17:02:08;3.40;;;1.50;;
4391;SDS011;2210;51.938;8.488;2023-04-24T17:06:12;4.70;;;1.67;;
4391;SDS011;2210;51.938;8.488;2023-04-24T17:10:12;3.67;;;2.27;;
4391;SDS011;2210;51.938;8.488;2023-04-24T17:14:15;3.13;;;1.80;;
4391;SDS011;2210;51.938;8.488;2023-04-24T17:18:16;3.13;;;1.83;;
4391;SDS011;2210;51.938;8.488;2023-04-24T17:22:20;2.77;;;1.40;;
4391;SDS011;2210;51.938;8.488;2023-04-24T17:26:20;1.90;;;1.40;;
4391;SDS011;2210;51.938;8.488;2023-04-24T17:30:23;3.57;;;1.33;;
4391;SDS011;2210;51.938;8.488;2023-04-24T17:34:26;2.27;;;2.07;;
4391;SDS011;2210;51.938;8.488;2023-04-24T17:38:29;6.50;;;2.10;;
4391;SDS011;2210;51.938;8.488;2023-04-24T17:42:32;3.63;;;1.57;;
4391;SDS011;2210;51.938;8.488;2023-04-24T17:46:35;2.50;;;1.73;;
4391;SDS011;2210;51.938;8.488;2023-04-24T17:50:35;3.73;;;2.20;;
4391;SDS011;2210;51.938;8.488;2023-04-24T17:54:44;11.95;;;1.95;;
4391;SDS011;2210;51.938;8.488;2023-04-24T17:58:45;5.70;;;1.93;;
4391;SDS011;2210;51.938;8.488;2023-04-24T18:02:45;5.93;;;2.10;;
4391;SDS011;2210;51.938;8.488;2023-04-24T18:06:45;3.23;;;2.27;;
4391;SDS011;2210;51.938;8.488;2023-04-24T18:10:46;4.90;;;2.03;;
4391;SDS011;2210;51.938;8.488;2023-04-24T18:14:46;3.27;;;1.67;;
4391;SDS011;2210;51.938;8.488;2023-04-24T18:23:09;10.30;;;2.77;;
4391;SDS011;2210;51.938;8.488;2023-04-24T18:27:09;6.17;;;3.00;;
4391;SDS011;2210;51.938;8.488;2023-04-24T18:31:10;6.40;;;1.77;;
4391;SDS011;2210;51.938;8.488;2023-04-24T18:35:13;3.30;;;2.27;;
4391;SDS011;2210;51.938;8.488;2023-04-24T18:39:13;3.20;;;2.37;;
4391;SDS011;2210;51.938;8.488;2023-04-24T18:43:14;2.83;;;2.07;;
4391;SDS011;2210;51.938;8.488;2023-04-24T18:47:14;3.13;;;2.23;;
4391;SDS011;2210;51.938;8.488;2023-04-24T18:51:14;2.83;;;2.10;;
4391;SDS011;2210;51.938;8.488;2023-04-24T18:55:20;5.20;;;2.70;;
4391;SDS011;2210;51.938;8.488;2023-04-24T18:59:21;5.27;;;2.87;;
4391;SDS011;2210;51.938;8.488;2023-04-24T19:03:21;5.40;;;2.77;;
4391;SDS011;2210;51.938;8.488;2023-04-24T19:07:21;2.70;;;2.17;;
4391;SDS011;2210;51.938;8.488;2023-04-24T19:11:22;4.83;;;2.40;;
4391;SDS011;2210;51.938;8.488;2023-04-24T19:15:28;4.97;;;2.13;;
4391;SDS011;2210;51.938;8.488;2023-04-24T19:19:29;7.80;;;2.70;;
4391;SDS011;2210;51.938;8.488;2023-04-24T19:23:37;3.63;;;1.93;;
4391;SDS011;2210;51.938;8.488;2023-04-24T19:27:39;8.03;;;2.87;;
4391;SDS011;2210;51.938;8.488;2023-04-24T19:31:40;2.90;;;2.30;;
4391;SDS011;2210;51.938;8.488;2023-04-24T19:35:43;5.50;;;2.70;;
4391;SDS011;2210;51.938;8.488;2023-04-24T19:39:44;9.40;;;2.63;;
4391;SDS011;2210;51.938;8.488;2023-04-24T19:43:44;8.60;;;3.00;;
4391;SDS011;2210;51.938;8.488;2023-04-24T19:47:48;5.90;;;2.50;;
4391;SDS011;2210;51.938;8.488;2023-04-24T19:52:01;4.57;;;3.30;;
4391;SDS011;2210;51.938;8.488;2023-04-24T19:56:02;5.32;;;3.30;;
4391;SDS011;2210;51.938;8.488;2023-04-24T20:00:02;5.20;;;2.87;;
4391;SDS011;2210;51.938;8.488;2023-04-24T20:04:03;6.23;;;3.87;;
4391;SDS011;2210;51.938;8.488;2023-04-24T20:08:06;8.17;;;3.97;;
4391;SDS011;2210;51.938;8.488;2023-04-24T20:12:16;7.00;;;4.23;;
4391;SDS011;2210;51.938;8.488;2023-04-24T20:16:19;8.17;;;4.43;;
4391;SDS011;2210;51.938;8.488;2023-04-24T20:20:32;7.80;;;4.37;;
4391;SDS011;2210;51.938;8.488;2023-04-24T20:24:36;7.53;;;4.67;;
4391;SDS011;2210;51.938;8.488;2023-04-24T20:28:39;9.90;;;5.27;;
4391;SDS011;2210;51.938;8.488;2023-04-24T20:32:45;7.63;;;5.20;;
4391;SDS011;2210;51.938;8.488;2023-04-24T20:36:49;5.87;;;3.93;;
4391;SDS011;2210;51.938;8.488;2023-04-24T20:40:52;5.40;;;4.17;;
4391;SDS011;2210;51.938;8.488;2023-04-24T20:44:53;7.57;;;3.90;;
4391;SDS011;2210;51.938;8.488;2023-04-24T20:49:09;5.67;;;4.03;;
4391;SDS011;2210;51.938;8.488;2023-04-24T20:53:15;4.20;;;3.50;;
4391;SDS011;2210;51.938;8.488;2023-04-24T20:57:15;5.53;;;3.50;;
4391;SDS011;2210;51.938;8.488;2023-04-24T21:01:15;7.05;;;3.97;;
4391;SDS011;2210;51.938;8.488;2023-04-24T21:05:16;5.23;;;3.80;;
4391;SDS011;2210;51.938;8.488;2023-04-24T21:09:16;6.00;;;4.30;;
4391;SDS011;2210;51.938;8.488;2023-04-24T21:13:23;6.60;;;3.87;;
4391;SDS011;2210;51.938;8.488;2023-04-24T21:17:23;7.83;;;3.87;;
4391;SDS011;2210;51.938;8.488;2023-04-24T21:21:29;6.87;;;4.10;;
4391;SDS011;2210;51.938;8.488;2023-04-24T21:25:33;7.97;;;4.00;;
4391;SDS011;2210;51.938;8.488;2023-04-24T21:29:53;7.27;;;3.87;;
4391;SDS011;2210;51.938;8.488;2023-04-24T21:34:06;5.90;;;3.80;;
4391;SDS011;2210;51.938;8.488;2023-04-24T21:38:06;8.00;;;4.20;;
4391;SDS011;2210;51.938;8.488;2023-04-24T21:42:15;7.43;;;4.80;;
4391;SDS011;2210;51.938;8.488;2023-04-24T21:46:16;6.53;;;4.73;;
4391;SDS011;2210;51.938;8.488;2023-04-24T21:50:16;5.37;;;3.80;;
4391;SDS011;2210;51.938;8.488;2023-04-24T21:54:16;7.80;;;4.30;;
4391;SDS011;2210;51.938;8.488;2023-04-24T21:58:19;8.67;;;4.80;;
4391;SDS011;2210;51.938;8.488;2023-04-24T22:02:28;8.70;;;4.23;;
4391;SDS011;2210;51.938;8.488;2023-04-24T22:06:29;8.93;;;5.00;;
4391;SDS011;2210;51.938;8.488;2023-04-24T22:10:34;9.63;;;5.20;;
4391;SDS011;2210;51.938;8.488;2023-04-24T22:14:37;10.63;;;5.53;;
4391;SDS011;2210;51.938;8.488;2023-04-24T22:18:38;10.30;;;5.90;;
4391;SDS011;2210;51.938;8.488;2023-04-24T22:22:41;6.63;;;5.27;;
4391;SDS011;2210;51.938;8.488;2023-04-24T22:26:41;8.07;;;5.17;;
4391;SDS011;2210;51.938;8.488;2023-04-24T22:30:42;17.77;;;7.10;;
4391;SDS011;2210;51.938;8.488;2023-04-24T22:34:42;10.57;;;5.50;;
4391;SDS011;2210;51.938;8.488;2023-04-24T22:38:46;9.57;;;5.80;;
4391;SDS011;2210;51.938;8.488;2023-04-24T22:42:46;10.60;;;5.97;;
4391;SDS011;2210;51.938;8.488;2023-04-24T22:46:56;11.73;;;7.17;;
4391;SDS011;2210;51.938;8.488;2023-04-24T22:50:59;7.97;;;5.20;;
4391;SDS011;2210;51.938;8.488;2023-04-24T22:55:03;7.03;;;5.50;;
4391;SDS011;2210;51.938;8.488;2023-04-24T22:59:04;8.20;;;5.73;;
4391;SDS011;2210;51.938;8.488;2023-04-24T23:03:05;7.50;;;5.50;;
4391;SDS011;2210;51.938;8.488;2023-04-24T23:07:05;11.70;;;6.00;;
4391;SDS011;2210;51.938;8.488;2023-04-24T23:11:06;11.88;;;5.30;;
4391;SDS011;2210;51.938;8.488;2023-04-24T23:15:06;7.00;;;4.63;;
4391;SDS011;2210;51.938;8.488;2023-04-24T23:19:07;10.30;;;5.07;;
4391;SDS011;2210;51.938;8.488;2023-04-24T23:23:08;7.80;;;5.30;;
4391;SDS011;2210;51.938;8.488;2023-04-24T23:27:09;11.77;;;5.63;;
4391;SDS011;2210;51.938;8.488;2023-04-24T23:31:09;9.17;;;5.13;;
4391;SDS011;2210;51.938;8.488;2023-04-24T23:35:12;7.87;;;5.00;;
4391;SDS011;2210;51.938;8.488;2023-04-24T23:39:13;8.23;;;5.63;;
4391;SDS011;2210;51.938;8.488;2023-04-24T23:43:13;9.77;;;5.03;;
4391;SDS011;2210;51.938;8.488;2023-04-24T23:47:13;8.53;;;5.17;;
4391;SDS011;2210;51.938;8.488;2023-04-24T23:51:14;8.02;;;5.30;;
4391;SDS011;2210;51.938;8.488;2023-04-24T23:55:14;10.50;;;5.00;;
4391;SDS011;2210;51.938;8.488;2023-04-24T23:59:14;10.13;;;4.80;;
